KABI

Abilene Regional Airport

Abilene, Texas, USA
METAR KABI 221752Z 36011G21KT 10SM FEW041 17/06 A3017 RMK AO2 SLP205 T01670056 10167 20083 58009
Observed Flight Rules
Apr-22 @ 17:52 UTC (18 minutes ago) Visual Flight Rules
Wind Visibility Clouds
360° at 11 knots
 Gusting to 21 knots
10 miles
  • Few at 4,100' AGL
Temperatures Readings
Current 17°C / 63°F
Dewpoint 6°C / 43°F
Humidity 49%
Altimeter 30.17" Hg
Pressure 1020.5 hPa
Elevation 548
METAR KABI 221752Z 36011G21KT 10SM FEW041 17/06 A3017 RMK AO2 SLP205 T01670056 10167 20083 58009
Observed Flight Rules
Apr-22 @ 17:52 UTC
(18 minutes ago)
VFR
Wind Visibility
360° at 11 knots
 Gusting to 21 knots
10 miles
Clouds
  • Few at 4,100' AGL
Temperature Dewpoint
17°C / 63°F 6°C / 43°F
Humidity Altimeter Pressure
49% 30.17" Hg 1020.5 hPa